Time,TemperatureF,DewpointF,PressureIn,WindDirection,WindDirectionDegrees,WindSpeedMPH,WindSpeedGustMPH,Humidity,HourlyPrecipIn,Conditions,Clouds,dailyrainin,SoftwareType,DateUTC
2013-03-23 00:00:00,43.6,29.0,29.13,WSW,247,2.0,3.0,54,0.00,,,0.00,Rainwise IP-100,2013-03-23 04:00:00,
2013-03-23 00:05:00,43.6,29.0,29.13,WSW,247,0.0,2.0,54,0.00,,,0.00,Rainwise IP-100,2013-03-23 04:05:00,
2013-03-23 00:10:00,43.3,29.0,29.13,WSW,247,0.0,2.0,56,0.00,,,0.00,Rainwise IP-100,2013-03-23 04:10:00,
2013-03-23 00:15:00,42.8,29.0,29.13,WSW,247,1.0,2.0,57,0.00,,,0.00,Rainwise IP-100,2013-03-23 04:15:00,
2013-03-23 00:20:00,42.6,29.0,29.13,WSW,247,1.0,2.0,57,0.00,,,0.00,Rainwise IP-100,2013-03-23 04:20:00,
2013-03-23 00:25:00,42.6,29.0,29.13,SW,225,1.0,2.0,57,0.00,,,0.00,Rainwise IP-100,2013-03-23 04:25:00,
2013-03-23 00:30:00,42.8,29.0,29.12,SW,225,1.0,2.0,57,0.00,,,0.00,Rainwise IP-100,2013-03-23 04:30:00,
2013-03-23 00:35:00,42.9,29.0,29.13,WSW,247,1.0,2.0,57,0.00,,,0.00,Rainwise IP-100,2013-03-23 04:35:00,
2013-03-23 00:40:00,42.8,31.0,29.13,WSW,247,2.0,2.0,61,0.00,,,0.00,Rainwise IP-100,2013-03-23 04:40:00,
2013-03-23 00:41:00,42.8,29.0,29.13,WSW,247,2.0,2.0,58,0.00,,,0.00,Rainwise IP-100,2013-03-23 04:41:00,
2013-03-23 00:46:00,42.4,31.0,29.13,WSW,247,0.0,2.0,62,0.00,,,0.00,Rainwise IP-100,2013-03-23 04:46:00,
2013-03-23 00:51:00,42.2,29.0,29.12,WSW,247,0.0,2.0,59,0.00,,,0.00,Rainwise IP-100,2013-03-23 04:51:00,
2013-03-23 00:56:00,41.7,31.0,29.11,WSW,247,0.0,0.0,63,0.00,,,0.00,Rainwise IP-100,2013-03-23 04:56:00,
2013-03-23 01:01:00,41.1,31.0,29.11,WSW,247,0.0,0.0,66,0.00,,,0.00,Rainwise IP-100,2013-03-23 05:01:00,
2013-03-23 01:06:00,40.7,32.0,29.11,WSW,247,0.0,0.0,68,0.00,,,0.00,Rainwise IP-100,2013-03-23 05:06:00,
2013-03-23 01:11:00,40.5,32.0,29.11,WSW,247,0.0,0.0,68,0.00,,,0.00,Rainwise IP-100,2013-03-23 05:11:00,
2013-03-23 01:16:00,39.9,32.0,29.11,WSW,247,0.0,0.0,70,0.00,,,0.00,Rainwise IP-100,2013-03-23 05:16:00,
2013-03-23 01:21:00,39.8,32.0,29.10,WSW,247,0.0,2.0,70,0.00,,,0.00,Rainwise IP-100,2013-03-23 05:21:00,
2013-03-23 01:26:00,39.8,31.0,29.10,WSW,247,2.0,2.0,69,0.00,,,0.00,Rainwise IP-100,2013-03-23 05:26:00,
2013-03-23 01:31:00,40.1,31.0,29.10,WSW,247,1.0,2.0,68,0.00,,,0.00,Rainwise IP-100,2013-03-23 05:31:00,
2013-03-23 01:36:00,40.1,31.0,29.10,WSW,247,1.0,2.0,68,0.00,,,0.00,Rainwise IP-100,2013-03-23 05:36:00,
2013-03-23 01:41:00,40.2,31.0,29.10,SW,225,1.0,3.0,66,0.00,,,0.00,Rainwise IP-100,2013-03-23 05:41:00,
2013-03-23 01:46:00,40.3,31.0,29.10,SW,225,1.0,2.0,66,0.00,,,0.00,Rainwise IP-100,2013-03-23 05:46:00,
2013-03-23 01:51:00,40.5,31.0,29.10,SW,225,2.0,2.0,64,0.00,,,0.00,Rainwise IP-100,2013-03-23 05:51:00,
2013-03-23 01:56:00,40.5,31.0,29.10,WSW,247,1.0,2.0,65,0.00,,,0.00,Rainwise IP-100,2013-03-23 05:56:00,
2013-03-23 02:01:00,40.6,29.0,29.09,WSW,247,0.0,2.0,63,0.00,,,0.00,Rainwise IP-100,2013-03-23 06:01:00,
2013-03-23 02:06:00,39.9,32.0,29.09,North,360,0.0,2.0,70,0.00,,,0.00,Rainwise IP-100,2013-03-23 06:06:00,
2013-03-23 02:11:00,39.2,31.0,29.09,North,360,0.0,2.0,72,0.00,,,0.00,Rainwise IP-100,2013-03-23 06:11:00,
2013-03-23 02:16:00,38.9,32.0,29.09,ENE,67,2.0,2.0,77,0.00,,,0.00,Rainwise IP-100,2013-03-23 06:16:00,
2013-03-23 02:21:00,38.9,31.0,29.08,ENE,67,2.0,2.0,70,0.00,,,0.00,Rainwise IP-100,2013-03-23 06:21:00,
2013-03-23 02:26:00,38.9,31.0,29.08,ENE,67,1.0,2.0,70,0.00,,,0.00,Rainwise IP-100,2013-03-23 06:26:00,
2013-03-23 02:31:00,38.9,32.0,29.08,ENE,67,0.0,2.0,75,0.00,,,0.00,Rainwise IP-100,2013-03-23 06:31:00,
2013-03-23 02:36:00,38.8,32.0,29.08,ENE,67,0.0,0.0,76,0.00,,,0.00,Rainwise IP-100,2013-03-23 06:36:00,
2013-03-23 02:41:00,38.6,32.0,29.08,ENE,67,0.0,0.0,75,0.00,,,0.00,Rainwise IP-100,2013-03-23 06:41:00,
2013-03-23 02:47:00,38.6,32.0,29.08,ENE,67,0.0,0.0,74,0.00,,,0.00,Rainwise IP-100,2013-03-23 06:47:00,
2013-03-23 02:52:00,38.5,32.0,29.07,ENE,67,0.0,0.0,77,0.00,,,0.00,Rainwise IP-100,2013-03-23 06:52:00,
2013-03-23 02:57:00,38.1,32.0,29.07,ENE,67,0.0,0.0,77,0.00,,,0.00,Rainwise IP-100,2013-03-23 06:57:00,
2013-03-23 03:02:00,37.8,31.0,29.06,ENE,67,1.0,2.0,76,0.00,,,0.00,Rainwise IP-100,2013-03-23 07:02:00,
2013-03-23 03:07:00,37.5,32.0,29.06,ENE,67,2.0,2.0,77,0.00,,,0.00,Rainwise IP-100,2013-03-23 07:07:00,
2013-03-23 03:12:00,37.3,31.0,29.06,ENE,67,0.0,2.0,78,0.00,,,0.00,Rainwise IP-100,2013-03-23 07:12:00,
2013-03-23 03:17:00,37.1,32.0,29.05,ENE,67,0.0,0.0,80,0.00,,,0.00,Rainwise IP-100,2013-03-23 07:17:00,
2013-03-23 03:22:00,37.2,31.0,29.06,ENE,67,2.0,2.0,79,0.00,,,0.00,Rainwise IP-100,2013-03-23 07:22:00,
2013-03-23 03:27:00,37.4,31.0,29.06,ENE,67,0.0,2.0,77,0.00,,,0.00,Rainwise IP-100,2013-03-23 07:27:00,
2013-03-23 03:32:00,37.6,32.0,29.06,ENE,67,0.0,0.0,78,0.00,,,0.00,Rainwise IP-100,2013-03-23 07:32:00,
2013-03-23 03:37:00,37.8,32.0,29.06,ENE,67,0.0,0.0,79,0.00,,,0.00,Rainwise IP-100,2013-03-23 07:37:00,
2013-03-23 03:42:00,37.8,32.0,29.07,ENE,67,0.0,0.0,79,0.00,,,0.00,Rainwise IP-100,2013-03-23 07:42:00,
2013-03-23 03:47:00,37.9,32.0,29.06,ENE,67,2.0,2.0,79,0.00,,,0.00,Rainwise IP-100,2013-03-23 07:47:00,
2013-03-23 03:52:00,37.9,32.0,29.06,ENE,67,0.0,2.0,79,0.00,,,0.00,Rainwise IP-100,2013-03-23 07:52:00,
2013-03-23 03:57:00,37.8,32.0,29.06,ENE,67,1.0,2.0,78,0.00,,,0.00,Rainwise IP-100,2013-03-23 07:57:00,
2013-03-23 04:02:00,38.0,32.0,29.06,ENE,67,0.0,2.0,79,0.00,,,0.00,Rainwise IP-100,2013-03-23 08:02:00,
2013-03-23 04:07:00,38.2,32.0,29.06,ENE,67,0.0,0.0,78,0.00,,,0.00,Rainwise IP-100,2013-03-23 08:07:00,
2013-03-23 04:12:00,38.4,32.0,29.06,ENE,67,0.0,0.0,78,0.00,,,0.00,Rainwise IP-100,2013-03-23 08:12:00,
2013-03-23 04:17:00,38.7,33.0,29.07,ENE,67,0.0,0.0,78,0.00,,,0.00,Rainwise IP-100,2013-03-23 08:17:00,
2013-03-23 04:22:00,38.9,32.0,29.07,ENE,67,0.0,0.0,77,0.00,,,0.00,Rainwise IP-100,2013-03-23 08:22:00,
2013-03-23 04:27:00,38.9,33.0,29.07,ENE,67,0.0,0.0,78,0.00,,,0.00,Rainwise IP-100,2013-03-23 08:27:00,
2013-03-23 04:32:00,39.1,33.0,29.07,ENE,67,0.0,0.0,78,0.00,,,0.00,Rainwise IP-100,2013-03-23 08:32:00,
2013-03-23 04:37:00,39.3,32.0,29.07,ENE,67,1.0,0.0,77,0.00,,,0.00,Rainwise IP-100,2013-03-23 08:37:00,
2013-03-23 04:42:00,39.2,33.0,29.07,ENE,67,1.0,2.0,79,0.00,,,0.00,Rainwise IP-100,2013-03-23 08:42:00,
2013-03-23 04:47:00,39.1,33.0,29.07,ENE,67,0.0,2.0,79,0.00,,,0.00,Rainwise IP-100,2013-03-23 08:47:00,
2013-03-23 04:52:00,38.9,33.0,29.07,ENE,67,0.0,0.0,80,0.00,,,0.00,Rainwise IP-100,2013-03-23 08:52:00,
2013-03-23 04:57:00,39.0,33.0,29.06,ENE,67,2.0,2.0,78,0.00,,,0.00,Rainwise IP-100,2013-03-23 08:57:00,
2013-03-23 05:02:00,39.2,33.0,29.06,ENE,67,1.0,2.0,81,0.00,,,0.00,Rainwise IP-100,2013-03-23 09:02:00,
2013-03-23 05:07:00,38.9,33.0,29.06,ENE,67,0.0,2.0,78,0.00,,,0.00,Rainwise IP-100,2013-03-23 09:07:00,
2013-03-23 05:12:00,38.9,33.0,29.06,ENE,67,0.0,0.0,78,0.00,,,0.00,Rainwise IP-100,2013-03-23 09:12:00,
2013-03-23 05:17:00,39.2,33.0,29.07,ENE,67,2.0,2.0,79,0.00,,,0.00,Rainwise IP-100,2013-03-23 09:17:00,
2013-03-23 05:22:00,39.3,33.0,29.07,ENE,67,2.0,2.0,80,0.00,,,0.00,Rainwise IP-100,2013-03-23 09:22:00,
2013-03-23 05:27:00,39.4,33.0,29.07,ENE,67,1.0,2.0,79,0.00,,,0.00,Rainwise IP-100,2013-03-23 09:27:00,
2013-03-23 05:32:00,39.4,33.0,29.06,ENE,67,2.0,2.0,79,0.00,,,0.00,Rainwise IP-100,2013-03-23 09:32:00,
2013-03-23 05:37:00,39.5,35.0,29.06,East,90,1.0,2.0,80,0.00,,,0.00,Rainwise IP-100,2013-03-23 09:37:00,
2013-03-23 05:42:00,39.6,35.0,29.06,East,90,0.0,2.0,79,0.00,,,0.00,Rainwise IP-100,2013-03-23 09:42:00,
2013-03-23 05:47:00,39.8,35.0,29.07,East,90,0.0,2.0,80,0.00,,,0.00,Rainwise IP-100,2013-03-23 09:47:00,
2013-03-23 05:52:00,39.9,35.0,29.07,East,90,0.0,0.0,78,0.00,,,0.00,Rainwise IP-100,2013-03-23 09:52:00,
2013-03-23 05:57:00,40.1,33.0,29.08,East,90,0.0,0.0,77,0.00,,,0.00,Rainwise IP-100,2013-03-23 09:57:00,
2013-03-23 06:02:00,40.3,35.0,29.07,East,90,0.0,2.0,78,0.00,,,0.00,Rainwise IP-100,2013-03-23 10:02:00,
2013-03-23 06:07:00,40.2,35.0,29.08,East,90,0.0,1.0,78,0.00,,,0.00,Rainwise IP-100,2013-03-23 10:07:00,
2013-03-23 06:12:00,40.3,33.0,29.08,East,90,1.0,1.0,77,0.00,,,0.00,Rainwise IP-100,2013-03-23 10:12:00,
2013-03-23 06:17:00,40.3,35.0,29.09,East,90,1.0,1.0,78,0.00,,,0.00,Rainwise IP-100,2013-03-23 10:17:00,
2013-03-23 06:22:00,40.5,35.0,29.08,SE,135,1.0,2.0,78,0.00,,,0.00,Rainwise IP-100,2013-03-23 10:22:00,
2013-03-23 06:27:00,40.6,35.0,29.08,ESE,112,0.0,2.0,76,0.00,,,0.00,Rainwise IP-100,2013-03-23 10:27:00,
2013-03-23 06:32:00,40.7,35.0,29.08,ESE,112,1.0,0.0,76,0.00,,,0.00,Rainwise IP-100,2013-03-23 10:32:00,
2013-03-23 06:37:00,40.6,35.0,29.07,ESE,112,2.0,2.0,78,0.00,,,0.00,Rainwise IP-100,2013-03-23 10:37:00,
2013-03-23 06:42:00,40.7,35.0,29.08,ESE,112,0.0,2.0,78,0.00,,,0.00,Rainwise IP-100,2013-03-23 10:42:00,
2013-03-23 06:47:00,40.8,35.0,29.09,ESE,112,0.0,0.0,77,0.00,,,0.00,Rainwise IP-100,2013-03-23 10:47:00,
2013-03-23 06:52:00,40.9,35.0,29.08,ESE,112,0.0,1.0,77,0.00,,,0.00,Rainwise IP-100,2013-03-23 10:52:00,
2013-03-23 06:57:00,41.0,35.0,29.09,ESE,112,0.0,1.0,78,0.00,,,0.00,Rainwise IP-100,2013-03-23 10:57:00,
2013-03-23 07:02:00,41.0,35.0,29.08,ESE,112,0.0,0.0,75,0.00,,,0.00,Rainwise IP-100,2013-03-23 11:02:00,
2013-03-23 07:07:00,41.0,35.0,29.09,ESE,112,0.0,0.0,75,0.00,,,0.00,Rainwise IP-100,2013-03-23 11:07:00,
2013-03-23 07:12:00,41.1,35.0,29.09,ESE,112,0.0,0.0,75,0.00,,,0.00,Rainwise IP-100,2013-03-23 11:12:00,
2013-03-23 07:17:00,41.2,33.0,29.09,ESE,112,0.0,0.0,74,0.00,,,0.00,Rainwise IP-100,2013-03-23 11:17:00,
2013-03-23 07:22:00,41.6,35.0,29.10,ESE,112,0.0,0.0,74,0.00,,,0.00,Rainwise IP-100,2013-03-23 11:22:00,
2013-03-23 07:27:00,41.8,35.0,29.10,ESE,112,0.0,0.0,74,0.00,,,0.00,Rainwise IP-100,2013-03-23 11:27:00,
2013-03-23 07:32:00,41.9,35.0,29.11,ESE,112,0.0,0.0,75,0.00,,,0.00,Rainwise IP-100,2013-03-23 11:32:00,
2013-03-23 07:37:00,41.9,36.0,29.10,ESE,112,0.0,0.0,77,0.00,,,0.00,Rainwise IP-100,2013-03-23 11:37:00,
2013-03-23 07:42:00,41.9,36.0,29.10,ESE,112,1.0,2.0,77,0.00,,,0.00,Rainwise IP-100,2013-03-23 11:42:00,
2013-03-23 07:48:00,41.9,36.0,29.10,ESE,112,0.0,2.0,77,0.00,,,0.00,Rainwise IP-100,2013-03-23 11:48:00,
2013-03-23 07:53:00,42.0,35.0,29.11,ESE,112,0.0,0.0,75,0.00,,,0.00,Rainwise IP-100,2013-03-23 11:53:00,
2013-03-23 07:58:00,42.2,35.0,29.11,South,180,1.0,1.0,75,0.00,,,0.00,Rainwise IP-100,2013-03-23 11:58:00,
2013-03-23 08:03:00,42.5,36.0,29.12,South,180,0.0,2.0,75,0.00,,,0.00,Rainwise IP-100,2013-03-23 12:03:00,
2013-03-23 08:08:00,42.7,36.0,29.13,West,270,2.0,2.0,75,0.00,,,0.00,Rainwise IP-100,2013-03-23 12:08:00,
2013-03-23 08:13:00,42.6,37.0,29.14,WSW,247,2.0,3.0,77,0.00,,,0.00,Rainwise IP-100,2013-03-23 12:13:00,
2013-03-23 08:18:00,42.5,37.0,29.14,WSW,247,1.0,2.0,77,0.00,,,0.00,Rainwise IP-100,2013-03-23 12:18:00,
2013-03-23 08:23:00,41.9,36.0,29.14,SW,225,1.0,2.0,78,0.00,,,0.00,Rainwise IP-100,2013-03-23 12:23:00,
2013-03-23 08:28:00,41.6,36.0,29.14,West,270,2.0,2.0,77,0.00,,,0.00,Rainwise IP-100,2013-03-23 12:28:00,
2013-03-23 08:33:00,41.4,36.0,29.14,West,270,2.0,3.0,81,0.00,,,0.00,Rainwise IP-100,2013-03-23 12:33:00,
2013-03-23 08:38:00,41.3,37.0,29.14,West,270,0.0,2.0,83,0.06,,,0.01,Rainwise IP-100,2013-03-23 12:38:00,
2013-03-23 08:43:00,40.9,37.0,29.13,West,270,0.0,0.0,83,0.06,,,0.01,Rainwise IP-100,2013-03-23 12:43:00,
2013-03-23 08:48:00,40.8,38.0,29.13,NW,315,0.0,0.0,88,0.00,,,0.01,Rainwise IP-100,2013-03-23 12:48:00,
2013-03-23 08:53:00,40.6,38.0,29.13,NW,315,0.0,0.0,90,0.06,,,0.02,Rainwise IP-100,2013-03-23 12:53:00,
2013-03-23 08:58:00,40.6,39.0,29.13,NW,315,0.0,0.0,94,0.06,,,0.02,Rainwise IP-100,2013-03-23 12:58:00,
2013-03-23 09:03:00,40.6,40.0,29.13,East,90,1.0,2.0,96,0.06,,,0.03,Rainwise IP-100,2013-03-23 13:03:00,
2013-03-23 09:08:00,40.5,40.0,29.13,East,90,1.0,2.0,96,0.06,,,0.03,Rainwise IP-100,2013-03-23 13:08:00,
2013-03-23 09:13:00,40.4,39.0,29.13,East,90,0.0,2.0,96,0.06,,,0.04,Rainwise IP-100,2013-03-23 13:13:00,
2013-03-23 09:18:00,40.4,39.0,29.13,SW,225,1.0,2.0,94,0.06,,,0.04,Rainwise IP-100,2013-03-23 13:18:00,
2013-03-23 09:23:00,40.5,40.0,29.13,SW,225,3.0,3.0,96,0.00,,,0.05,Rainwise IP-100,2013-03-23 13:23:00,
2013-03-23 09:28:00,40.5,40.0,29.13,SW,225,1.0,4.0,96,0.06,,,0.05,Rainwise IP-100,2013-03-23 13:28:00,
2013-03-23 09:33:00,40.5,40.0,29.13,SW,225,2.0,4.0,96,0.06,,,0.05,Rainwise IP-100,2013-03-23 13:33:00,
2013-03-23 09:38:00,40.5,40.0,29.13,SSE,157,1.0,2.0,96,0.06,,,0.06,Rainwise IP-100,2013-03-23 13:38:00,
2013-03-23 09:43:00,40.6,40.0,29.13,SSW,202,2.0,4.0,95,0.06,,,0.06,Rainwise IP-100,2013-03-23 13:43:00,
2013-03-23 09:48:00,40.8,40.0,29.14,South,180,2.0,4.0,95,0.00,,,0.06,Rainwise IP-100,2013-03-23 13:48:00,
2013-03-23 09:53:00,40.8,39.0,29.13,SW,225,3.0,6.0,93,0.00,,,0.06,Rainwise IP-100,2013-03-23 13:53:00,
2013-03-23 09:58:00,40.8,39.0,29.13,South,180,2.0,4.0,93,0.00,,,0.06,Rainwise IP-100,2013-03-23 13:58:00,
2013-03-23 10:03:00,40.9,39.0,29.13,South,180,1.0,4.0,93,0.00,,,0.06,Rainwise IP-100,2013-03-23 14:03:00,
2013-03-23 10:08:00,40.9,39.0,29.13,South,180,2.0,4.0,94,0.00,,,0.06,Rainwise IP-100,2013-03-23 14:08:00,
2013-03-23 10:13:00,40.9,39.0,29.13,SSW,202,0.0,2.0,93,0.00,,,0.06,Rainwise IP-100,2013-03-23 14:13:00,
2013-03-23 10:18:00,41.1,39.0,29.13,SSW,202,0.0,1.0,93,0.00,,,0.06,Rainwise IP-100,2013-03-23 14:18:00,
2013-03-23 10:23:00,41.2,39.0,29.13,SSW,202,0.0,2.0,92,0.00,,,0.06,Rainwise IP-100,2013-03-23 14:23:00,
2013-03-23 10:28:00,41.3,39.0,29.13,SSW,202,0.0,2.0,92,0.00,,,0.06,Rainwise IP-100,2013-03-23 14:28:00,
2013-03-23 10:33:00,41.3,39.0,29.13,SSW,202,1.0,2.0,91,0.00,,,0.06,Rainwise IP-100,2013-03-23 14:33:00,
2013-03-23 10:38:00,41.4,39.0,29.12,SE,135,0.0,2.0,94,0.00,,,0.06,Rainwise IP-100,2013-03-23 14:38:00,
2013-03-23 10:43:00,41.6,40.0,29.13,West,270,2.0,2.0,93,0.00,,,0.06,Rainwise IP-100,2013-03-23 14:43:00,
2013-03-23 10:48:00,41.7,39.0,29.13,West,270,1.0,2.0,90,0.00,,,0.06,Rainwise IP-100,2013-03-23 14:48:00,
2013-03-23 10:53:00,41.7,40.0,29.13,NNW,337,3.0,5.0,93,0.00,,,0.06,Rainwise IP-100,2013-03-23 14:53:00,
2013-03-23 10:58:00,41.7,40.0,29.14,NW,315,2.0,5.0,92,0.00,,,0.06,Rainwise IP-100,2013-03-23 14:58:00,
2013-03-23 11:03:00,41.8,40.0,29.15,North,360,1.0,4.0,94,0.00,,,0.06,Rainwise IP-100,2013-03-23 15:03:00,
2013-03-23 11:08:00,41.9,41.0,29.15,North,360,1.0,4.0,96,0.00,,,0.06,Rainwise IP-100,2013-03-23 15:08:00,
2013-03-23 11:13:00,42.0,41.0,29.15,NNE,22,2.0,2.0,96,0.00,,,0.06,Rainwise IP-100,2013-03-23 15:13:00,
2013-03-23 11:18:00,42.0,41.0,29.15,NNW,337,2.0,4.0,95,0.00,,,0.06,Rainwise IP-100,2013-03-23 15:18:00,
2013-03-23 11:23:00,42.0,41.0,29.15,NW,315,1.0,4.0,96,0.00,,,0.06,Rainwise IP-100,2013-03-23 15:23:00,
2013-03-23 11:28:00,42.2,41.0,29.15,NE,45,2.0,4.0,96,0.00,,,0.06,Rainwise IP-100,2013-03-23 15:28:00,
2013-03-23 11:33:00,42.2,41.0,29.14,ENE,67,2.0,2.0,96,0.00,,,0.06,Rainwise IP-100,2013-03-23 15:33:00,
2013-03-23 11:38:00,42.1,40.0,29.13,NE,45,2.0,4.0,94,0.00,,,0.06,Rainwise IP-100,2013-03-23 15:38:00,
2013-03-23 11:43:00,42.2,41.0,29.13,ESE,112,2.0,2.0,95,0.00,,,0.06,Rainwise IP-100,2013-03-23 15:43:00,
2013-03-23 11:48:00,42.3,41.0,29.13,East,90,2.0,2.0,96,0.00,,,0.06,Rainwise IP-100,2013-03-23 15:48:00,
2013-03-23 11:53:00,42.3,41.0,29.12,ENE,67,2.0,5.0,96,0.00,,,0.06,Rainwise IP-100,2013-03-23 15:53:00,
2013-03-23 11:58:00,42.4,41.0,29.12,NE,45,1.0,4.0,96,0.00,,,0.06,Rainwise IP-100,2013-03-23 15:58:00,
2013-03-23 12:03:00,42.6,42.0,29.12,SE,135,1.0,2.0,96,0.00,,,0.06,Rainwise IP-100,2013-03-23 16:03:00,
2013-03-23 12:08:00,42.6,42.0,29.12,ESE,112,1.0,2.0,96,0.00,,,0.06,Rainwise IP-100,2013-03-23 16:08:00,
2013-03-23 12:13:00,42.7,42.0,29.13,ENE,67,1.0,3.0,96,0.00,,,0.06,Rainwise IP-100,2013-03-23 16:13:00,
2013-03-23 12:18:00,42.8,42.0,29.12,East,90,4.0,5.0,95,0.00,,,0.06,Rainwise IP-100,2013-03-23 16:18:00,
2013-03-23 12:23:00,42.8,42.0,29.13,ESE,112,2.0,4.0,95,0.00,,,0.06,Rainwise IP-100,2013-03-23 16:23:00,
2013-03-23 12:28:00,42.9,41.0,29.13,NE,45,2.0,4.0,94,0.00,,,0.06,Rainwise IP-100,2013-03-23 16:28:00,
2013-03-23 12:33:00,42.9,41.0,29.13,ENE,67,2.0,3.0,94,0.00,,,0.06,Rainwise IP-100,2013-03-23 16:33:00,
2013-03-23 12:38:00,42.9,41.0,29.12,ENE,67,1.0,4.0,93,0.00,,,0.06,Rainwise IP-100,2013-03-23 16:38:00,
2013-03-23 12:43:00,43.0,41.0,29.12,East,90,2.0,4.0,93,0.00,,,0.06,Rainwise IP-100,2013-03-23 16:43:00,
2013-03-23 12:48:00,43.2,41.0,29.12,East,90,1.0,3.0,93,0.00,,,0.06,Rainwise IP-100,2013-03-23 16:48:00,
2013-03-23 12:53:00,43.2,41.0,29.12,ENE,67,2.0,2.0,92,0.00,,,0.06,Rainwise IP-100,2013-03-23 16:53:00,
2013-03-23 12:58:00,43.4,41.0,29.12,NE,45,2.0,2.0,92,0.00,,,0.06,Rainwise IP-100,2013-03-23 16:58:00,
2013-03-23 13:03:00,43.5,42.0,29.12,ENE,67,1.0,3.0,93,0.00,,,0.06,Rainwise IP-100,2013-03-23 17:03:00,
2013-03-23 13:08:00,43.5,41.0,29.12,ESE,112,1.0,2.0,91,0.00,,,0.06,Rainwise IP-100,2013-03-23 17:08:00,
2013-03-23 13:13:00,43.6,42.0,29.13,NE,45,2.0,2.0,92,0.00,,,0.06,Rainwise IP-100,2013-03-23 17:13:00,
2013-03-23 13:18:00,43.6,42.0,29.12,SE,135,1.0,2.0,92,0.00,,,0.06,Rainwise IP-100,2013-03-23 17:18:00,
2013-03-23 13:23:00,43.8,42.0,29.12,NE,45,1.0,2.0,92,0.00,,,0.06,Rainwise IP-100,2013-03-23 17:23:00,
2013-03-23 13:28:00,44.0,41.0,29.13,NE,45,0.0,2.0,90,0.00,,,0.06,Rainwise IP-100,2013-03-23 17:28:00,
2013-03-23 13:33:00,44.2,41.0,29.13,ENE,67,2.0,2.0,89,0.00,,,0.06,Rainwise IP-100,2013-03-23 17:33:00,
2013-03-23 13:38:00,44.3,41.0,29.13,NE,45,2.0,4.0,89,0.00,,,0.06,Rainwise IP-100,2013-03-23 17:38:00,
2013-03-23 13:43:00,44.3,41.0,29.13,NE,45,2.0,4.0,89,0.00,,,0.06,Rainwise IP-100,2013-03-23 17:43:00,
2013-03-23 13:48:00,44.3,41.0,29.13,NE,45,2.0,3.0,90,0.00,,,0.06,Rainwise IP-100,2013-03-23 17:48:00,
2013-03-23 13:53:00,44.4,41.0,29.13,ESE,112,2.0,3.0,90,0.00,,,0.06,Rainwise IP-100,2013-03-23 17:53:00,
2013-03-23 13:58:00,44.5,42.0,29.13,NE,45,1.0,4.0,90,0.00,,,0.06,Rainwise IP-100,2013-03-23 17:58:00,
2013-03-23 14:03:00,44.5,42.0,29.12,NE,45,2.0,5.0,89,0.00,,,0.06,Rainwise IP-100,2013-03-23 18:03:00,
2013-03-23 14:08:00,44.4,41.0,29.12,ENE,67,2.0,4.0,89,0.00,,,0.06,Rainwise IP-100,2013-03-23 18:08:00,
2013-03-23 14:13:00,44.5,42.0,29.12,East,90,1.0,4.0,90,0.00,,,0.06,Rainwise IP-100,2013-03-23 18:13:00,
2013-03-23 14:18:00,44.7,42.0,29.11,ESE,112,6.0,6.0,89,0.00,,,0.06,Rainwise IP-100,2013-03-23 18:18:00,
2013-03-23 14:23:00,44.8,42.0,29.11,ESE,112,2.0,6.0,90,0.00,,,0.06,Rainwise IP-100,2013-03-23 18:23:00,
2013-03-23 14:28:00,44.9,42.0,29.11,East,90,1.0,4.0,89,0.00,,,0.06,Rainwise IP-100,2013-03-23 18:28:00,
2013-03-23 14:33:00,44.9,42.0,29.11,ESE,112,3.0,6.0,90,0.00,,,0.06,Rainwise IP-100,2013-03-23 18:33:00,
2013-03-23 14:38:00,44.9,42.0,29.10,East,90,1.0,6.0,89,0.00,,,0.06,Rainwise IP-100,2013-03-23 18:38:00,
2013-03-23 14:43:00,45.2,42.0,29.10,SE,135,1.0,5.0,90,0.00,,,0.06,Rainwise IP-100,2013-03-23 18:43:00,
2013-03-23 14:48:00,45.5,43.0,29.10,ESE,112,2.0,4.0,89,0.00,,,0.06,Rainwise IP-100,2013-03-23 18:48:00,
2013-03-23 14:53:00,45.8,42.0,29.10,ESE,112,2.0,4.0,88,0.00,,,0.06,Rainwise IP-100,2013-03-23 18:53:00,
2013-03-23 14:58:00,46.2,43.0,29.10,SSE,157,3.0,4.0,89,0.00,,,0.06,Rainwise IP-100,2013-03-23 18:58:00,
2013-03-23 15:03:00,46.2,42.0,29.10,ESE,112,4.0,6.0,87,0.00,,,0.06,Rainwise IP-100,2013-03-23 19:03:00,
2013-03-23 15:08:00,46.4,42.0,29.11,SSE,157,1.0,5.0,87,0.00,,,0.06,Rainwise IP-100,2013-03-23 19:08:00,
2013-03-23 15:13:00,46.6,43.0,29.11,East,90,2.0,4.0,86,0.00,,,0.06,Rainwise IP-100,2013-03-23 19:13:00,
2013-03-23 15:18:00,46.7,43.0,29.11,NNE,22,3.0,4.0,87,0.00,,,0.06,Rainwise IP-100,2013-03-23 19:18:00,
2013-03-23 15:23:00,47.1,42.0,29.10,ENE,67,2.0,6.0,85,0.00,,,0.06,Rainwise IP-100,2013-03-23 19:23:00,
2013-03-23 15:28:00,47.3,43.0,29.11,NNE,22,1.0,3.0,85,0.00,,,0.06,Rainwise IP-100,2013-03-23 19:28:00,
2013-03-23 15:33:00,47.9,44.0,29.11,ENE,67,2.0,4.0,84,0.00,,,0.06,Rainwise IP-100,2013-03-23 19:33:00,
2013-03-23 15:38:00,48.5,44.0,29.11,NNE,22,1.0,4.0,83,0.00,,,0.06,Rainwise IP-100,2013-03-23 19:38:00,
2013-03-23 15:43:00,48.7,44.0,29.11,ENE,67,2.0,5.0,82,0.00,,,0.06,Rainwise IP-100,2013-03-23 19:43:00,
2013-03-23 15:48:00,48.2,43.0,29.11,ENE,67,2.0,6.0,82,0.00,,,0.06,Rainwise IP-100,2013-03-23 19:48:00,
2013-03-23 15:53:00,48.1,43.0,29.11,NNE,22,1.0,5.0,83,0.00,,,0.06,Rainwise IP-100,2013-03-23 19:53:00,
2013-03-23 15:58:00,48.4,43.0,29.11,NE,45,2.0,7.0,83,0.00,,,0.06,Rainwise IP-100,2013-03-23 19:58:00,
2013-03-23 16:03:00,48.3,43.0,29.11,NE,45,1.0,6.0,83,0.00,,,0.06,Rainwise IP-100,2013-03-23 20:03:00,
2013-03-23 16:08:00,48.6,44.0,29.11,NNE,22,4.0,4.0,83,0.00,,,0.06,Rainwise IP-100,2013-03-23 20:08:00,
2013-03-23 16:13:00,48.7,44.0,29.11,NE,45,4.0,5.0,82,0.00,,,0.06,Rainwise IP-100,2013-03-23 20:13:00,
2013-03-23 16:18:00,48.9,44.0,29.11,NNE,22,2.0,6.0,83,0.00,,,0.06,Rainwise IP-100,2013-03-23 20:18:00,
2013-03-23 16:23:00,48.8,44.0,29.11,NNE,22,2.0,6.0,82,0.00,,,0.06,Rainwise IP-100,2013-03-23 20:23:00,
2013-03-23 16:28:00,49.2,43.0,29.10,NNE,22,1.0,6.0,81,0.00,,,0.06,Rainwise IP-100,2013-03-23 20:28:00,
2013-03-23 16:33:00,49.4,43.0,29.10,NE,45,4.0,5.0,80,0.00,,,0.06,Rainwise IP-100,2013-03-23 20:33:00,
2013-03-23 16:38:00,49.1,44.0,29.10,NE,45,1.0,6.0,82,0.00,,,0.06,Rainwise IP-100,2013-03-23 20:38:00,
2013-03-23 16:43:00,48.9,44.0,29.10,NE,45,1.0,6.0,83,0.00,,,0.06,Rainwise IP-100,2013-03-23 20:43:00,
2013-03-23 16:48:00,48.9,44.0,29.10,ENE,67,6.0,6.0,83,0.00,,,0.06,Rainwise IP-100,2013-03-23 20:48:00,
2013-03-23 16:54:00,48.9,44.0,29.09,NE,45,4.0,6.0,83,0.00,,,0.06,Rainwise IP-100,2013-03-23 20:54:00,
2013-03-23 16:59:00,49.0,44.0,29.09,East,90,1.0,6.0,83,0.00,,,0.06,Rainwise IP-100,2013-03-23 20:59:00,
2013-03-23 17:04:00,49.2,44.0,29.09,East,90,3.0,4.0,83,0.00,,,0.06,Rainwise IP-100,2013-03-23 21:04:00,
2013-03-23 17:09:00,49.2,44.0,29.09,NE,45,1.0,5.0,82,0.00,,,0.06,Rainwise IP-100,2013-03-23 21:09:00,
2013-03-23 17:14:00,49.2,44.0,29.08,ESE,112,3.0,6.0,82,0.00,,,0.06,Rainwise IP-100,2013-03-23 21:14:00,
2013-03-23 17:19:00,48.9,44.0,29.08,ENE,67,1.0,5.0,83,0.00,,,0.06,Rainwise IP-100,2013-03-23 21:19:00,
2013-03-23 17:24:00,49.2,44.0,29.08,ENE,67,2.0,4.0,83,0.00,,,0.06,Rainwise IP-100,2013-03-23 21:24:00,
2013-03-23 17:29:00,49.0,44.0,29.08,ENE,67,2.0,5.0,83,0.00,,,0.06,Rainwise IP-100,2013-03-23 21:29:00,
2013-03-23 17:34:00,49.2,44.0,29.08,NNE,22,1.0,4.0,83,0.00,,,0.06,Rainwise IP-100,2013-03-23 21:34:00,
2013-03-23 17:39:00,49.5,45.0,29.08,East,90,3.0,4.0,82,0.00,,,0.06,Rainwise IP-100,2013-03-23 21:39:00,
2013-03-23 17:44:00,49.3,44.0,29.08,East,90,3.0,6.0,83,0.00,,,0.06,Rainwise IP-100,2013-03-23 21:44:00,
2013-03-23 17:49:00,49.3,44.0,29.07,ENE,67,2.0,5.0,83,0.00,,,0.06,Rainwise IP-100,2013-03-23 21:49:00,
2013-03-23 17:54:00,49.4,44.0,29.07,East,90,2.0,4.0,83,0.00,,,0.06,Rainwise IP-100,2013-03-23 21:54:00,
2013-03-23 17:59:00,49.7,45.0,29.08,North,360,1.0,3.0,82,0.00,,,0.06,Rainwise IP-100,2013-03-23 21:59:00,
2013-03-23 18:04:00,49.7,45.0,29.08,East,90,1.0,5.0,82,0.00,,,0.06,Rainwise IP-100,2013-03-23 22:04:00,
2013-03-23 18:09:00,49.6,45.0,29.09,ENE,67,4.0,4.0,82,0.00,,,0.06,Rainwise IP-100,2013-03-23 22:09:00,
2013-03-23 18:14:00,49.5,45.0,29.08,ENE,67,1.0,4.0,83,0.00,,,0.06,Rainwise IP-100,2013-03-23 22:14:00,
2013-03-23 18:19:00,49.5,45.0,29.08,East,90,2.0,2.0,83,0.00,,,0.06,Rainwise IP-100,2013-03-23 22:19:00,
2013-03-23 18:24:00,49.6,45.0,29.07,ESE,112,1.0,3.0,83,0.00,,,0.06,Rainwise IP-100,2013-03-23 22:24:00,
2013-03-23 18:29:00,49.6,45.0,29.07,East,90,2.0,2.0,83,0.00,,,0.06,Rainwise IP-100,2013-03-23 22:29:00,
2013-03-23 18:34:00,49.4,44.0,29.07,NE,45,2.0,2.0,83,0.00,,,0.06,Rainwise IP-100,2013-03-23 22:34:00,
2013-03-23 18:39:00,49.4,44.0,29.07,NE,45,3.0,4.0,83,0.00,,,0.06,Rainwise IP-100,2013-03-23 22:39:00,
2013-03-23 18:44:00,49.3,44.0,29.07,NE,45,2.0,4.0,83,0.00,,,0.06,Rainwise IP-100,2013-03-23 22:44:00,
2013-03-23 18:49:00,49.1,44.0,29.08,East,90,2.0,4.0,84,0.00,,,0.06,Rainwise IP-100,2013-03-23 22:49:00,
2013-03-23 18:54:00,49.0,44.0,29.08,East,90,0.0,3.0,84,0.00,,,0.06,Rainwise IP-100,2013-03-23 22:54:00,
2013-03-23 18:59:00,49.1,44.0,29.08,NE,45,2.0,3.0,84,0.00,,,0.06,Rainwise IP-100,2013-03-23 22:59:00,
2013-03-23 19:04:00,49.0,44.0,29.08,NE,45,2.0,4.0,84,0.00,,,0.06,Rainwise IP-100,2013-03-23 23:04:00,
2013-03-23 19:09:00,48.9,44.0,29.09,East,90,2.0,3.0,84,0.00,,,0.06,Rainwise IP-100,2013-03-23 23:09:00,
2013-03-23 19:14:00,48.9,44.0,29.09,East,90,1.0,3.0,84,0.00,,,0.06,Rainwise IP-100,2013-03-23 23:14:00,
2013-03-23 19:19:00,48.9,45.0,29.09,ENE,67,3.0,3.0,85,0.00,,,0.06,Rainwise IP-100,2013-03-23 23:19:00,
2013-03-23 19:24:00,48.9,45.0,29.09,NE,45,3.0,4.0,85,0.00,,,0.06,Rainwise IP-100,2013-03-23 23:24:00,
2013-03-23 19:29:00,48.8,45.0,29.09,NE,45,1.0,3.0,85,0.00,,,0.06,Rainwise IP-100,2013-03-23 23:29:00,
2013-03-23 19:34:00,48.8,45.0,29.09,ENE,67,2.0,2.0,85,0.00,,,0.06,Rainwise IP-100,2013-03-23 23:34:00,
2013-03-23 19:39:00,48.8,45.0,29.09,East,90,2.0,3.0,86,0.00,,,0.06,Rainwise IP-100,2013-03-23 23:39:00,
2013-03-23 19:44:00,48.7,45.0,29.09,East,90,2.0,2.0,86,0.00,,,0.06,Rainwise IP-100,2013-03-23 23:44:00,
2013-03-23 19:49:00,48.6,45.0,29.09,East,90,1.0,2.0,87,0.00,,,0.06,Rainwise IP-100,2013-03-23 23:49:00,
2013-03-23 19:54:00,48.5,45.0,29.09,North,360,2.0,2.0,87,0.00,,,0.06,Rainwise IP-100,2013-03-23 23:54:00,
2013-03-23 19:59:00,48.5,45.0,29.10,NE,45,2.0,3.0,87,0.00,,,0.06,Rainwise IP-100,2013-03-23 23:59:00,
2013-03-23 20:04:00,48.4,45.0,29.10,NE,45,2.0,2.0,87,0.00,,,0.06,Rainwise IP-100,2013-03-24 00:04:00,
2013-03-23 20:09:00,48.4,45.0,29.10,ESE,112,2.0,2.0,88,0.00,,,0.06,Rainwise IP-100,2013-03-24 00:09:00,
2013-03-23 20:14:00,48.4,45.0,29.10,East,90,1.0,3.0,87,0.00,,,0.06,Rainwise IP-100,2013-03-24 00:14:00,
2013-03-23 20:19:00,48.4,45.0,29.11,SE,135,2.0,2.0,87,0.00,,,0.06,Rainwise IP-100,2013-03-24 00:19:00,
2013-03-23 20:24:00,48.5,45.0,29.11,ESE,112,2.0,2.0,87,0.00,,,0.06,Rainwise IP-100,2013-03-24 00:24:00,
2013-03-23 20:29:00,48.5,45.0,29.12,ESE,112,1.0,3.0,87,0.00,,,0.06,Rainwise IP-100,2013-03-24 00:29:00,
2013-03-23 20:34:00,48.5,45.0,29.11,ESE,112,1.0,4.0,87,0.00,,,0.06,Rainwise IP-100,2013-03-24 00:34:00,
2013-03-23 20:39:00,48.3,45.0,29.11,ESE,112,1.0,4.0,87,0.00,,,0.06,Rainwise IP-100,2013-03-24 00:39:00,
2013-03-23 20:44:00,48.3,45.0,29.11,SE,135,2.0,4.0,87,0.00,,,0.06,Rainwise IP-100,2013-03-24 00:44:00,
2013-03-23 20:49:00,48.2,45.0,29.11,SE,135,1.0,4.0,87,0.00,,,0.06,Rainwise IP-100,2013-03-24 00:49:00,
2013-03-23 20:54:00,48.2,45.0,29.11,SE,135,2.0,3.0,88,0.00,,,0.06,Rainwise IP-100,2013-03-24 00:54:00,
2013-03-23 20:59:00,48.2,45.0,29.10,ESE,112,4.0,4.0,88,0.00,,,0.06,Rainwise IP-100,2013-03-24 00:59:00,
2013-03-23 21:04:00,48.2,45.0,29.09,SE,135,2.0,7.0,88,0.00,,,0.06,Rainwise IP-100,2013-03-24 01:04:00,
2013-03-23 21:09:00,48.1,45.0,29.09,East,90,2.0,4.0,88,0.00,,,0.06,Rainwise IP-100,2013-03-24 01:09:00,
2013-03-23 21:14:00,48.0,45.0,29.09,SE,135,3.0,4.0,89,0.00,,,0.06,Rainwise IP-100,2013-03-24 01:14:00,
2013-03-23 21:19:00,47.9,45.0,29.09,East,90,2.0,6.0,89,0.00,,,0.06,Rainwise IP-100,2013-03-24 01:19:00,
2013-03-23 21:24:00,47.9,46.0,29.09,ENE,67,3.0,4.0,90,0.00,,,0.06,Rainwise IP-100,2013-03-24 01:24:00,
2013-03-23 21:29:00,47.8,46.0,29.09,ENE,67,2.0,4.0,90,0.00,,,0.06,Rainwise IP-100,2013-03-24 01:29:00,
2013-03-23 21:34:00,47.7,45.0,29.09,NE,45,4.0,5.0,90,0.00,,,0.06,Rainwise IP-100,2013-03-24 01:34:00,
2013-03-23 21:39:00,47.5,45.0,29.08,ENE,67,2.0,4.0,91,0.00,,,0.06,Rainwise IP-100,2013-03-24 01:39:00,
2013-03-23 21:44:00,47.2,44.0,29.07,East,90,1.0,4.0,91,0.00,,,0.06,Rainwise IP-100,2013-03-24 01:44:00,
2013-03-23 21:49:00,46.9,44.0,29.07,East,90,1.0,2.0,92,0.00,,,0.06,Rainwise IP-100,2013-03-24 01:49:00,
2013-03-23 21:54:00,46.8,44.0,29.07,East,90,2.0,4.0,92,0.00,,,0.06,Rainwise IP-100,2013-03-24 01:54:00,
2013-03-23 21:59:00,46.6,45.0,29.07,ENE,67,3.0,3.0,93,0.00,,,0.06,Rainwise IP-100,2013-03-24 01:59:00,
2013-03-23 22:04:00,46.5,45.0,29.07,ENE,67,2.0,4.0,94,0.00,,,0.06,Rainwise IP-100,2013-03-24 02:04:00,
2013-03-23 22:09:00,46.3,44.0,29.07,East,90,2.0,2.0,94,0.00,,,0.06,Rainwise IP-100,2013-03-24 02:09:00,
2013-03-23 22:14:00,46.1,44.0,29.06,ENE,67,2.0,3.0,95,0.00,,,0.06,Rainwise IP-100,2013-03-24 02:14:00,
2013-03-23 22:19:00,45.9,44.0,29.06,NE,45,1.0,2.0,95,0.00,,,0.06,Rainwise IP-100,2013-03-24 02:19:00,
2013-03-23 22:24:00,45.6,45.0,29.05,NE,45,1.0,2.0,96,0.00,,,0.06,Rainwise IP-100,2013-03-24 02:24:00,
2013-03-23 22:29:00,45.5,45.0,29.05,NE,45,0.0,2.0,96,0.00,,,0.06,Rainwise IP-100,2013-03-24 02:29:00,
2013-03-23 22:34:00,45.4,44.0,29.05,NE,45,1.0,2.0,96,0.00,,,0.06,Rainwise IP-100,2013-03-24 02:34:00,
2013-03-23 22:39:00,45.4,44.0,29.05,ENE,67,1.0,2.0,96,0.00,,,0.06,Rainwise IP-100,2013-03-24 02:39:00,
2013-03-23 22:44:00,45.3,44.0,29.05,ENE,67,2.0,2.0,97,0.00,,,0.06,Rainwise IP-100,2013-03-24 02:44:00,
2013-03-23 22:49:00,45.2,44.0,29.04,ENE,67,0.0,2.0,97,0.00,,,0.06,Rainwise IP-100,2013-03-24 02:49:00,
2013-03-23 22:54:00,44.8,44.0,29.04,ENE,67,0.0,2.0,96,0.00,,,0.06,Rainwise IP-100,2013-03-24 02:54:00,
2013-03-23 22:59:00,44.6,44.0,29.04,ENE,67,1.0,2.0,96,0.00,,,0.06,Rainwise IP-100,2013-03-24 02:59:00,
2013-03-23 23:04:00,44.4,43.0,29.03,East,90,1.0,2.0,96,0.00,,,0.06,Rainwise IP-100,2013-03-24 03:04:00,
2013-03-23 23:09:00,44.3,43.0,29.02,ENE,67,3.0,3.0,96,0.00,,,0.06,Rainwise IP-100,2013-03-24 03:09:00,
2013-03-23 23:14:00,44.3,43.0,29.01,ENE,67,2.0,4.0,96,0.00,,,0.06,Rainwise IP-100,2013-03-24 03:14:00,
2013-03-23 23:19:00,44.2,43.0,29.01,ENE,67,0.0,2.0,96,0.00,,,0.06,Rainwise IP-100,2013-03-24 03:19:00,
2013-03-23 23:25:00,43.9,43.0,29.01,SSE,157,2.0,2.0,96,0.00,,,0.06,Rainwise IP-100,2013-03-24 03:25:00,
2013-03-23 23:30:00,43.9,43.0,29.03,South,180,2.0,2.0,96,0.00,,,0.06,Rainwise IP-100,2013-03-24 03:30:00,
2013-03-23 23:35:00,44.1,43.0,29.03,South,180,0.0,2.0,96,0.00,,,0.06,Rainwise IP-100,2013-03-24 03:35:00,
2013-03-23 23:40:00,44.1,43.0,29.03,ENE,67,2.0,2.0,96,0.00,,,0.06,Rainwise IP-100,2013-03-24 03:40:00,
2013-03-23 23:45:00,43.9,43.0,29.03,ENE,67,1.0,2.0,96,0.00,,,0.06,Rainwise IP-100,2013-03-24 03:45:00,
2013-03-23 23:50:00,43.6,43.0,29.01,ENE,67,1.0,2.0,96,0.00,,,0.06,Rainwise IP-100,2013-03-24 03:50:00,
2013-03-23 23:55:00,43.4,42.0,29.01,ENE,67,0.0,2.0,96,0.00,,,0.06,Rainwise IP-100,2013-03-24 03:55:00,